createdAt,value
2023-02-11T00:00:09.994Z,100155.96
2023-02-11T00:02:40.391Z,100155.31
2023-02-11T00:05:21.991Z,100152.31
2023-02-11T00:08:21.032Z,100144.45
2023-02-11T00:11:19.218Z,100142.61
2023-02-11T00:14:14.540Z,100139.45
2023-02-11T00:16:44.982Z,100141.73
2023-02-11T00:19:12.204Z,100145.30
2023-02-11T00:21:49.779Z,100142.08
2023-02-11T00:24:19.817Z,100139.43
2023-02-11T00:27:10.414Z,100137.34
2023-02-11T00:30:42.295Z,100134.02
2023-02-11T00:33:16.279Z,100132.46
2023-02-11T00:36:18.305Z,100135.48
2023-02-11T00:38:54.468Z,100132.45
2023-02-11T00:41:48.386Z,100132.11
2023-02-11T00:44:22.142Z,100129.27
2023-02-11T00:47:29.069Z,100124.28
2023-02-11T00:50:05.834Z,100119.27
2023-02-11T00:52:48.852Z,100110.77
2023-02-11T00:55:34.807Z,100108.58
2023-02-11T00:58:23.048Z,100099.57
2023-02-11T01:01:16.130Z,100100.40
2023-02-11T01:04:06.430Z,100099.21
2023-02-11T01:07:04.218Z,100095.29
2023-02-11T01:09:31.765Z,100092.95
2023-02-11T01:12:14.408Z,100091.30
2023-02-11T01:14:44.200Z,100081.21
2023-02-11T01:17:18.734Z,100079.27
2023-02-11T01:20:07.136Z,100076.33
2023-02-11T01:22:39.633Z,100070.98
2023-02-11T01:25:59.888Z,100070.20
2023-02-11T01:28:55.366Z,100064.41
2023-02-11T01:31:22.712Z,100058.57
2023-02-11T01:34:10.701Z,100054.99
2023-02-11T01:36:38.878Z,100056.93
2023-02-11T01:39:15.143Z,100052.92
2023-02-11T01:42:29.016Z,100049.63
2023-02-11T01:46:15.560Z,100050.88
2023-02-11T01:49:19.889Z,100044.98
2023-02-11T01:53:15.308Z,100042.98
2023-02-11T01:57:05.113Z,100046.01
2023-02-11T02:01:11.389Z,100038.15
2023-02-11T02:04:17.348Z,100037.10
2023-02-11T02:07:06.765Z,100035.41
2023-02-11T02:10:10.021Z,100035.52
2023-02-11T02:12:49.185Z,100032.11
2023-02-11T02:15:53.489Z,100027.63
2023-02-11T02:19:28.057Z,100024.89
2023-02-11T02:22:45.497Z,100026.66
2023-02-11T02:26:08.653Z,100023.02
2023-02-11T02:29:28.245Z,100013.19
2023-02-11T02:33:05.746Z,100012.08
2023-02-11T02:36:35.533Z,100009.61
2023-02-11T02:39:38.959Z,100012.79
2023-02-11T02:42:43.260Z,100005.81
2023-02-11T02:45:28.033Z,100001.67
2023-02-11T02:48:06.667Z,99999.41
2023-02-11T02:50:36.876Z,99997.87
2023-02-11T02:53:27.538Z,99994.48
2023-02-11T02:56:38.556Z,99989.38
2023-02-11T03:00:04.110Z,99993.30
2023-02-11T03:03:38.929Z,99995.95
2023-02-11T03:07:22.357Z,99998.28
2023-02-11T03:10:34.091Z,100000.69
2023-02-11T03:13:17.679Z,100000.67
2023-02-11T03:16:42.138Z,99997.92
2023-02-11T03:19:37.575Z,99994.89
2023-02-11T03:22:41.490Z,99994.23
2023-02-11T03:25:14.397Z,99996.46
2023-02-11T03:28:34.891Z,99997.50
2023-02-11T03:31:31.052Z,99984.80
2023-02-11T03:34:38.583Z,99986.86
2023-02-11T03:38:06.573Z,99988.02
2023-02-11T03:40:52.091Z,99986.66
2023-02-11T03:43:25.201Z,99981.80
2023-02-11T03:45:57.611Z,99977.73
2023-02-11T03:49:02.194Z,99973.19
2023-02-11T03:51:32.899Z,99965.65
2023-02-11T03:54:15.293Z,99955.11
2023-02-11T03:57:01.910Z,99947.64
2023-02-11T04:00:05.741Z,99952.50
2023-02-11T04:03:31.613Z,99956.20
2023-02-11T04:06:44.467Z,99959.69
2023-02-11T04:09:26.195Z,99956.15
2023-02-11T04:11:57.097Z,99959.42
2023-02-11T04:14:38.102Z,99956.31
2023-02-11T04:17:16.283Z,99951.97
2023-02-11T04:19:59.236Z,99951.27
2023-02-11T04:22:38.033Z,99946.09
2023-02-11T04:25:31.154Z,99945.09
2023-02-11T04:28:37.549Z,99938.83
2023-02-11T04:31:58.382Z,99934.45
2023-02-11T04:35:10.334Z,99922.79
2023-02-11T04:38:07.586Z,99915.34
2023-02-11T04:41:04.958Z,99911.70
2023-02-11T04:44:07.227Z,99902.45
2023-02-11T04:47:00.919Z,99901.38
2023-02-11T04:49:57.084Z,99902.14
2023-02-11T04:52:27.777Z,99897.25
2023-02-11T04:55:43.023Z,99894.23
2023-02-11T04:58:36.964Z,99886.47
2023-02-11T05:01:53.417Z,99883.29
2023-02-11T05:04:27.352Z,99879.19
2023-02-11T05:07:35.439Z,99872.85
2023-02-11T05:10:31.241Z,99870.83
2023-02-11T05:13:12.626Z,99870.45
2023-02-11T05:16:11.233Z,99864.23
2023-02-11T05:19:11.391Z,99855.75
2023-02-11T05:21:53.136Z,99856.48
2023-02-11T05:24:27.746Z,99856.95
2023-02-11T05:27:25.947Z,99856.90
2023-02-11T05:30:18.468Z,99853.61
2023-02-11T05:33:10.706Z,99853.83
2023-02-11T05:35:49.360Z,99846.89
2023-02-11T05:38:30.925Z,99837.97
2023-02-11T05:40:58.619Z,99840.21
2023-02-11T05:43:51.115Z,99838.16
2023-02-11T05:46:24.767Z,99839.71
2023-02-11T05:49:15.481Z,99834.55
2023-02-11T05:51:42.401Z,99829.84
2023-02-11T05:54:13.159Z,99824.73
2023-02-11T05:56:46.168Z,99815.27
2023-02-11T05:59:14.564Z,99815.80
2023-02-11T06:01:47.923Z,99826.65
2023-02-11T06:04:21.045Z,99827.95
2023-02-11T06:07:16.897Z,99828.93
2023-02-11T06:09:45.071Z,99832.20
2023-02-11T06:12:24.680Z,99834.62
2023-02-11T06:15:15.313Z,99834.16
2023-02-11T06:17:48.345Z,99836.59
2023-02-11T06:20:22.020Z,99831.61
2023-02-11T06:22:52.193Z,99831.75
2023-02-11T06:25:32.897Z,99838.48
2023-02-11T06:28:10.473Z,99834.70
2023-02-11T06:30:58.769Z,99830.77
2023-02-11T06:33:56.637Z,99825.68
2023-02-11T06:37:00.559Z,99832.98
2023-02-11T06:39:30.878Z,99827.17
2023-02-11T06:41:58.629Z,99824.56
2023-02-11T06:44:29.413Z,99813.05
2023-02-11T06:47:04.433Z,99809.84
2023-02-11T06:49:46.647Z,99806.97
2023-02-11T06:52:22.548Z,99799.88
2023-02-11T06:55:01.022Z,99792.73
2023-02-11T06:58:12.545Z,99783.31
2023-02-11T07:01:07.318Z,99781.94
2023-02-11T07:04:09.383Z,99774.12
2023-02-11T07:06:46.784Z,99766.56
2023-02-11T07:09:23.422Z,99764.20
2023-02-11T07:12:33.681Z,99756.83
2023-02-11T07:15:37.972Z,99748.95
2023-02-11T07:18:39.376Z,99740.70
2023-02-11T07:21:57.420Z,99715.76
2023-02-11T07:24:53.935Z,99713.08
2023-02-11T07:27:40.055Z,99717.77
2023-02-11T07:30:18.896Z,99700.96
2023-02-11T07:32:46.299Z,99699.88
2023-02-11T07:35:28.457Z,99692.39
2023-02-11T07:37:58.723Z,99699.92
2023-02-11T07:40:32.487Z,99691.28
2023-02-11T07:43:01.328Z,99689.45
2023-02-11T07:45:51.108Z,99678.61
2023-02-11T07:48:30.279Z,99674.64
2023-02-11T07:51:10.179Z,99666.64
2023-02-11T07:53:40.604Z,99666.98
2023-02-11T07:56:29.811Z,99673.02
2023-02-11T07:59:01.256Z,99670.23
2023-02-11T08:01:28.978Z,99678.83
2023-02-11T08:04:02.678Z,99684.52
2023-02-11T08:06:46.032Z,99681.08
2023-02-11T08:09:20.161Z,99669.17
2023-02-11T08:11:55.851Z,99662.17
2023-02-11T08:14:33.921Z,99663.92
2023-02-11T08:17:09.895Z,99666.23
2023-02-11T08:19:37.174Z,99657.36
2023-02-11T08:22:13.692Z,99651.05
2023-02-11T08:24:41.922Z,99654.61
2023-02-11T08:27:21.498Z,99652.38
2023-02-11T08:29:51.359Z,99651.50
2023-02-11T08:32:25.424Z,99645.05
2023-02-11T08:34:53.110Z,99642.84
2023-02-11T08:37:22.978Z,99641.80
2023-02-11T08:39:53.469Z,99638.94
2023-02-11T08:42:23.146Z,99643.61
2023-02-11T08:44:53.343Z,99645.60
2023-02-11T08:47:23.338Z,99646.10
2023-02-11T08:49:50.207Z,99647.92
2023-02-11T08:52:28.341Z,99642.61
2023-02-11T08:55:01.816Z,99648.07
2023-02-11T08:57:34.900Z,99647.02
2023-02-11T09:00:02.760Z,99643.83
2023-02-11T09:02:37.640Z,99642.12
2023-02-11T09:05:05.059Z,99645.29
2023-02-11T09:07:36.751Z,99638.10
2023-02-11T09:10:07.281Z,99634.33
2023-02-11T09:12:42.342Z,99627.91
2023-02-11T09:15:09.803Z,99629.91
2023-02-11T09:17:39.401Z,99626.39
2023-02-11T09:20:13.007Z,99618.02
2023-02-11T09:22:41.237Z,99620.63
2023-02-11T09:25:14.602Z,99614.39
2023-02-11T09:27:47.608Z,99619.00
2023-02-11T09:30:14.895Z,99615.11
2023-02-11T09:32:54.653Z,99619.61
2023-02-11T09:35:24.156Z,99617.00
2023-02-11T09:37:51.880Z,99613.10
2023-02-11T09:40:20.133Z,99606.23
2023-02-11T09:43:09.055Z,99609.44
2023-02-11T09:45:53.034Z,99605.80
2023-02-11T09:48:29.277Z,99606.73
2023-02-11T09:51:01.900Z,99599.16
2023-02-11T09:53:35.922Z,99593.73
2023-02-11T09:56:16.219Z,99586.17
2023-02-11T09:58:54.402Z,99575.21
2023-02-11T10:01:45.274Z,99570.02
2023-02-11T10:04:22.318Z,99563.05
2023-02-11T10:07:24.714Z,99556.33
2023-02-11T10:10:10.710Z,99551.27
2023-02-11T10:12:49.522Z,99542.63
2023-02-11T10:16:25.979Z,99531.55
2023-02-11T10:19:35.731Z,99518.85
2023-02-11T10:22:13.229Z,99500.17
2023-02-11T10:24:41.735Z,99484.11
2023-02-11T10:27:18.069Z,99473.61
2023-02-11T10:30:07.232Z,99460.67
2023-02-11T10:33:20.397Z,99461.96
2023-02-11T10:35:52.005Z,99454.09
2023-02-11T10:38:36.566Z,99452.34
2023-02-11T10:41:12.206Z,99450.15
2023-02-11T10:43:39.456Z,99453.45
2023-02-11T10:46:26.818Z,99447.19
2023-02-11T10:48:59.394Z,99435.36
2023-02-11T10:51:33.676Z,99432.20
2023-02-11T10:54:24.543Z,99437.95
2023-02-11T10:57:22.399Z,99432.23
2023-02-11T10:59:59.872Z,99423.62
2023-02-11T11:02:35.798Z,99419.45
2023-02-11T11:05:16.340Z,99409.66
2023-02-11T11:08:15.203Z,99407.19
2023-02-11T11:10:50.370Z,99410.30
2023-02-11T11:13:58.167Z,99409.92
2023-02-11T11:16:43.052Z,99391.09
2023-02-11T11:19:21.955Z,99384.52
2023-02-11T11:22:34.062Z,99370.74
2023-02-11T11:25:01.684Z,99363.96
2023-02-11T11:27:31.458Z,99348.61
2023-02-11T11:30:14.338Z,99347.29
2023-02-11T11:32:57.351Z,99345.31
2023-02-11T11:35:33.101Z,99338.73
2023-02-11T11:38:24.593Z,99333.07
2023-02-11T11:41:21.619Z,99332.65
2023-02-11T11:44:24.285Z,99331.18
2023-02-11T11:47:05.006Z,99332.27
2023-02-11T11:49:42.100Z,99326.45
2023-02-11T11:52:38.332Z,99319.00
2023-02-11T11:55:54.286Z,99316.25
2023-02-11T11:58:22.497Z,99313.34
2023-02-11T12:01:19.399Z,99307.54
2023-02-11T12:04:32.895Z,99297.27
2023-02-11T12:07:25.444Z,99293.62
2023-02-11T12:09:59.440Z,99287.34
2023-02-11T12:12:44.712Z,99286.92
2023-02-11T12:15:50.821Z,99288.21
2023-02-11T12:18:33.521Z,99292.41
2023-02-11T12:21:14.500Z,99293.42
2023-02-11T12:24:09.620Z,99295.14
2023-02-11T12:27:34.244Z,99287.23
2023-02-11T12:30:15.532Z,99284.38
2023-02-11T12:33:08.680Z,99273.23
2023-02-11T12:36:02.480Z,99266.19
2023-02-11T12:39:06.548Z,99253.91
2023-02-11T12:42:05.632Z,99254.29
2023-02-11T12:45:12.759Z,99260.30
2023-02-11T12:48:22.956Z,99250.89
2023-02-11T12:51:00.640Z,99247.05
2023-02-11T12:53:53.950Z,99250.48
2023-02-11T12:56:27.024Z,99245.00
2023-02-11T12:59:13.107Z,99237.56
2023-02-11T13:01:44.183Z,99227.60
2023-02-11T13:04:58.992Z,99228.06
2023-02-11T13:07:37.115Z,99231.00
2023-02-11T13:10:17.078Z,99230.32
2023-02-11T13:13:08.504Z,99235.10
2023-02-11T13:15:38.295Z,99233.41
2023-02-11T13:18:39.059Z,99235.23
2023-02-11T13:21:25.773Z,99234.48
2023-02-11T13:24:48.112Z,99227.15
2023-02-11T13:27:58.854Z,99218.18
2023-02-11T13:30:40.671Z,99213.66
2023-02-11T13:33:17.707Z,99221.70
2023-02-11T13:36:19.787Z,99217.29
2023-02-11T13:38:58.312Z,99215.04
2023-02-11T13:41:42.177Z,99213.88
2023-02-11T13:44:22.444Z,99212.93
2023-02-11T13:46:58.246Z,99210.48
2023-02-11T13:49:40.683Z,99205.44
2023-02-11T13:52:21.655Z,99207.39
2023-02-11T13:54:52.978Z,99201.39
2023-02-11T13:57:44.714Z,99205.11
2023-02-11T14:00:47.194Z,99196.41
2023-02-11T14:03:32.524Z,99192.98
2023-02-11T14:06:27.644Z,99183.94
2023-02-11T14:09:10.899Z,99173.50
2023-02-11T14:11:45.216Z,99167.38
2023-02-11T14:14:28.895Z,99162.83
2023-02-11T14:16:59.207Z,99152.08
2023-02-11T14:19:40.322Z,99145.67
2023-02-11T14:22:10.496Z,99154.33
2023-02-11T14:24:47.551Z,99164.79
2023-02-11T14:27:21.450Z,99163.95
2023-02-11T14:29:54.043Z,99160.30
2023-02-11T14:33:07.210Z,99153.30
2023-02-11T14:35:45.782Z,99151.70
2023-02-11T14:38:35.163Z,99146.50
2023-02-11T14:41:11.114Z,99148.02
2023-02-11T14:43:41.533Z,99155.02
2023-02-11T16:06:40.617Z,99139.27
2023-02-11T16:09:34.018Z,99144.91
2023-02-11T16:12:27.285Z,99148.11
2023-02-11T16:14:56.828Z,99142.20
2023-02-11T16:17:30.648Z,99140.73
2023-02-11T16:19:58.032Z,99144.68
2023-02-11T16:22:38.431Z,99142.92
2023-02-11T16:25:25.964Z,99142.55
2023-02-11T16:28:26.193Z,99141.80
2023-02-11T16:30:56.818Z,99149.52
2023-02-11T16:33:30.193Z,99147.35
2023-02-11T16:36:27.301Z,99141.65
2023-02-11T16:38:57.012Z,99134.85
2023-02-11T16:41:24.123Z,99135.50
2023-02-11T16:43:51.613Z,99130.47
2023-02-11T16:46:26.747Z,99128.32
2023-02-11T16:49:39.099Z,99133.60
2023-02-11T16:52:08.096Z,99135.86
2023-02-11T16:54:35.921Z,99142.20
2023-02-11T16:57:20.784Z,99136.33
2023-02-11T16:59:51.373Z,99138.66
2023-02-11T17:02:30.434Z,99141.27
2023-02-11T17:05:04.989Z,99140.38
2023-02-11T17:07:37.897Z,99137.13
2023-02-11T17:10:17.376Z,99131.33
2023-02-11T17:12:48.230Z,99116.14
2023-02-11T17:15:18.893Z,99106.10
2023-02-11T17:17:51.207Z,99110.11
2023-02-11T17:20:24.209Z,99121.53
2023-02-11T17:22:54.295Z,99119.61
2023-02-11T17:25:27.746Z,99112.45
2023-02-11T17:28:23.178Z,99096.34
2023-02-11T17:30:50.738Z,99106.04
2023-02-11T17:33:53.185Z,99108.13
2023-02-11T17:36:23.518Z,99106.04
2023-02-11T17:38:55.156Z,99109.39
2023-02-11T17:41:24.934Z,99114.05
2023-02-11T17:43:57.908Z,99111.52
2023-02-11T17:46:35.519Z,99117.25
2023-02-11T17:49:03.660Z,99108.86
2023-02-11T17:51:35.220Z,99121.65
2023-02-11T17:54:19.992Z,99120.45
2023-02-11T17:56:50.532Z,99121.20
2023-02-11T17:59:29.398Z,99125.92
2023-02-11T18:01:56.604Z,99121.19
2023-02-11T18:04:27.550Z,99125.67
2023-02-11T18:07:05.100Z,99118.23
2023-02-11T18:09:47.705Z,99119.59
2023-02-11T18:12:25.288Z,99116.40
2023-02-11T18:14:58.116Z,99113.34
2023-02-11T18:17:28.525Z,99114.00
2023-02-11T18:19:56.990Z,99110.86
2023-02-11T18:22:24.783Z,99107.60
2023-02-11T18:25:05.079Z,99107.39
2023-02-11T18:27:37.287Z,99106.14
2023-02-11T18:30:05.682Z,99105.11
2023-02-11T18:32:38.335Z,99105.65
2023-02-11T18:35:14.922Z,99114.13
2023-02-11T18:37:59.872Z,99115.98
2023-02-11T18:40:29.789Z,99118.48
2023-02-11T18:43:00.211Z,99114.52
2023-02-11T18:45:31.371Z,99109.30
2023-02-11T18:48:01.655Z,99102.92
2023-02-11T18:50:31.296Z,99102.02
2023-02-11T18:52:58.874Z,99096.10
2023-02-11T18:55:36.658Z,99097.16
2023-02-11T18:58:04.375Z,99098.61
2023-02-11T19:00:35.034Z,99103.70
2023-02-11T19:03:08.218Z,99103.02
2023-02-11T19:05:49.022Z,99107.71
2023-02-11T19:08:17.288Z,99106.62
2023-02-11T19:10:49.553Z,99111.52
2023-02-11T19:13:16.894Z,99114.75
2023-02-11T19:15:48.760Z,99114.73
2023-02-11T19:18:16.539Z,99119.20
2023-02-11T19:20:46.740Z,99116.57
2023-02-11T19:23:14.089Z,99107.34
2023-02-11T19:25:46.056Z,99111.22
2023-02-11T19:28:13.905Z,99115.46
2023-02-11T19:30:41.527Z,99107.34
2023-02-11T19:33:25.937Z,99114.42
2023-02-11T19:35:55.846Z,99115.69
2023-02-11T19:38:23.818Z,99115.70
2023-02-11T19:40:58.661Z,99118.12
2023-02-11T19:43:29.800Z,99115.67
2023-02-11T19:45:59.972Z,99115.67
2023-02-11T19:48:30.552Z,99108.86
2023-02-11T19:51:07.601Z,99112.40
2023-02-11T19:53:38.965Z,99109.74
2023-02-11T19:56:10.288Z,99113.15
2023-02-11T19:58:38.077Z,99115.05
2023-02-11T20:01:19.318Z,99115.04
2023-02-11T20:03:59.415Z,99115.10
2023-02-11T20:06:33.801Z,99116.63
2023-02-11T20:09:07.150Z,99117.29
2023-02-11T20:11:34.603Z,99117.73
2023-02-11T20:14:07.673Z,99118.99
2023-02-11T20:16:49.845Z,99123.70
2023-02-11T20:19:24.997Z,99118.34
2023-02-11T20:21:56.155Z,99132.40
2023-02-11T20:24:24.560Z,99125.83
2023-02-11T20:26:57.739Z,99119.94
2023-02-11T20:29:31.366Z,99119.27
2023-02-11T20:32:04.120Z,99119.35
2023-02-11T20:34:32.420Z,99116.14
2023-02-11T20:37:04.330Z,99121.46
2023-02-11T20:39:37.435Z,99123.42
2023-02-11T20:42:04.980Z,99129.58
2023-02-11T20:44:43.083Z,99123.83
2023-02-11T20:47:13.821Z,99123.52
2023-02-11T20:49:41.112Z,99123.33
2023-02-11T20:52:08.585Z,99118.39
2023-02-11T20:54:36.291Z,99122.20
2023-02-11T20:57:08.281Z,99131.23
2023-02-11T20:59:36.154Z,99129.84
2023-02-11T21:02:24.839Z,99132.99
2023-02-11T21:04:58.003Z,99126.48
2023-02-11T21:07:29.404Z,99129.32
2023-02-11T21:09:57.467Z,99129.59
2023-02-11T21:12:24.543Z,99123.63
2023-02-11T21:14:52.140Z,99122.16
2023-02-11T21:17:38.762Z,99127.45
2023-02-11T21:20:07.242Z,99137.21
2023-02-11T21:22:34.854Z,99137.41
2023-02-11T21:25:06.450Z,99131.86
2023-02-11T21:27:37.227Z,99136.35
2023-02-11T21:30:11.214Z,99133.06
2023-02-11T21:32:39.007Z,99137.64
2023-02-11T21:35:09.914Z,99143.29
2023-02-11T21:37:58.307Z,99141.23
2023-02-11T21:40:29.517Z,99143.36
2023-02-11T21:43:08.564Z,99139.22
2023-02-11T21:45:48.101Z,99141.61
2023-02-11T21:48:15.867Z,99139.99
2023-02-11T21:50:58.267Z,99140.81
2023-02-11T21:53:25.483Z,99136.31
2023-02-11T21:56:14.846Z,99136.91
2023-02-11T21:58:47.660Z,99133.92
2023-02-11T22:01:43.908Z,99126.54
2023-02-11T22:04:17.485Z,99126.46
2023-02-11T22:06:45.078Z,99120.60
2023-02-11T22:09:14.758Z,99133.03
2023-02-11T22:12:09.016Z,99134.64
2023-02-11T22:14:38.770Z,99132.36
2023-02-11T22:17:08.910Z,99137.17
2023-02-11T22:19:44.075Z,99136.09
2023-02-11T22:22:18.253Z,99142.48
2023-02-11T22:24:56.961Z,99147.45
2023-02-11T22:27:31.976Z,99146.44
2023-02-11T22:30:05.725Z,99152.34
2023-02-11T22:32:38.819Z,99154.48
2023-02-11T22:35:09.716Z,99156.45
2023-02-11T22:37:38.688Z,99150.20
2023-02-11T22:40:10.138Z,99156.10
2023-02-11T22:42:40.788Z,99152.55
2023-02-11T22:45:17.359Z,99148.38
2023-02-11T22:47:50.546Z,99149.84
2023-02-11T22:50:25.248Z,99154.15
2023-02-11T22:52:53.686Z,99154.52
2023-02-11T22:55:29.479Z,99150.94
2023-02-11T22:57:57.008Z,99152.98
2023-02-11T23:00:24.454Z,99152.83
2023-02-11T23:02:59.572Z,99154.36
2023-02-11T23:05:27.455Z,99166.39
2023-02-11T23:08:44.053Z,99167.22
2023-02-11T23:12:32.427Z,99166.27
2023-02-11T23:16:40.241Z,99169.45
2023-02-11T23:19:53.298Z,99164.90
2023-02-11T23:22:25.631Z,99160.56
2023-02-11T23:25:14.747Z,99165.60
2023-02-11T23:28:18.916Z,99175.21
2023-02-11T23:31:20.939Z,99168.73
2023-02-11T23:33:55.051Z,99174.21
2023-02-11T23:37:00.520Z,99172.09
2023-02-11T23:39:46.457Z,99177.05
2023-02-11T23:42:24.061Z,99175.66
2023-02-11T23:45:11.519Z,99182.15
2023-02-11T23:47:51.080Z,99181.59
2023-02-11T23:50:18.650Z,99175.25
2023-02-11T23:52:49.012Z,99177.88
2023-02-11T23:55:39.996Z,99177.36
2023-02-11T23:58:10.875Z,99181.45
